createdAt,value
2023-02-26T00:02:28.973Z,97878.00
2023-02-26T00:05:04.993Z,97881.17
2023-02-26T00:07:49.897Z,97885.66
2023-02-26T00:10:30.461Z,97886.19
2023-02-26T00:13:16.811Z,97890.70
2023-02-26T00:15:59.151Z,97897.92
2023-02-26T00:18:48.669Z,97894.02
2023-02-26T00:21:26.623Z,97886.20
2023-02-26T00:24:06.802Z,97884.87
2023-02-26T00:27:00.461Z,97879.73
2023-02-26T00:29:39.388Z,97882.27
2023-02-26T00:32:08.718Z,97889.12
2023-02-26T00:34:37.849Z,97892.52
2023-02-26T00:37:39.236Z,97893.34
2023-02-26T00:40:26.874Z,97899.19
2023-02-26T00:42:58.752Z,97894.07
2023-02-26T00:45:27.818Z,97891.64
2023-02-26T00:48:04.880Z,97890.30
2023-02-26T00:50:38.676Z,97899.08
2023-02-26T00:53:23.107Z,97902.88
2023-02-26T00:55:54.406Z,97908.89
2023-02-26T00:58:23.647Z,97906.13
2023-02-26T01:00:54.538Z,97903.90
2023-02-26T01:03:23.548Z,97895.50
2023-02-26T01:05:54.989Z,97897.93
2023-02-26T01:08:45.563Z,97888.73
2023-02-26T01:11:14.656Z,97885.83
2023-02-26T01:13:45.899Z,97885.70
2023-02-26T01:16:20.161Z,97886.39
2023-02-26T01:18:54.763Z,97886.29
2023-02-26T01:21:38.434Z,97880.21
2023-02-26T01:24:11.534Z,97879.76
2023-02-26T01:26:40.346Z,97887.45
2023-02-26T01:29:11.500Z,97881.45
2023-02-26T01:32:29.556Z,97876.30
2023-02-26T01:35:02.465Z,97879.44
2023-02-26T01:37:56.566Z,97876.73
2023-02-26T01:40:46.561Z,97870.48
2023-02-26T01:43:31.271Z,97861.11
2023-02-26T01:46:14.464Z,97842.98
2023-02-26T01:48:53.774Z,97840.09
2023-02-26T01:52:02.403Z,97840.95
2023-02-26T01:54:37.656Z,97843.53
2023-02-26T01:57:08.511Z,97839.16
2023-02-26T01:59:46.271Z,97845.83
2023-02-26T02:02:22.743Z,97844.61
2023-02-26T02:04:55.513Z,97844.29
2023-02-26T02:07:24.622Z,97843.56
2023-02-26T02:09:56.001Z,97841.83
2023-02-26T02:13:05.045Z,97846.91
2023-02-26T02:15:44.283Z,97843.30
2023-02-26T02:18:32.200Z,97846.27
2023-02-26T02:21:19.836Z,97852.41
2023-02-26T02:24:01.107Z,97848.77
2023-02-26T02:26:48.972Z,97849.78
2023-02-26T02:29:28.690Z,97855.74
2023-02-26T02:32:20.350Z,97856.77
2023-02-26T02:35:04.190Z,97855.77
2023-02-26T02:37:58.989Z,97847.31
2023-02-26T02:40:36.761Z,97854.77
2023-02-26T02:43:11.139Z,97859.31
2023-02-26T02:45:45.458Z,97863.02
2023-02-26T02:48:25.400Z,97872.76
2023-02-26T02:51:04.089Z,97886.51
2023-02-26T02:53:56.664Z,97890.73
2023-02-26T02:56:29.614Z,97894.04
2023-02-26T02:59:15.108Z,97894.46
2023-02-26T03:01:53.217Z,97897.84
2023-02-26T03:04:28.008Z,97895.06
2023-02-26T03:07:02.443Z,97892.60
2023-02-26T03:09:35.772Z,97891.13
2023-02-26T03:12:09.968Z,97892.41
2023-02-26T03:14:45.244Z,97889.70
2023-02-26T03:17:39.742Z,97883.77
2023-02-26T03:20:43.953Z,97879.91
2023-02-26T03:23:28.543Z,97880.15
2023-02-26T03:26:08.071Z,97872.16
2023-02-26T03:28:55.509Z,97866.55
2023-02-26T03:31:34.567Z,97865.70
2023-02-26T03:34:49.594Z,97860.57
2023-02-26T03:37:33.758Z,97857.71
2023-02-26T03:40:18.937Z,97852.34
2023-02-26T03:43:35.452Z,97863.95
2023-02-26T03:46:15.650Z,97868.05
2023-02-26T03:48:55.440Z,97863.98
2023-02-26T03:51:30.743Z,97857.88
2023-02-26T03:54:57.896Z,97859.96
2023-02-26T03:57:59.463Z,97861.02
2023-02-26T04:00:59.232Z,97862.73
2023-02-26T04:03:45.270Z,97863.25
2023-02-26T04:06:22.941Z,97872.10
2023-02-26T04:09:15.263Z,97873.48
2023-02-26T04:12:09.319Z,97870.95
2023-02-26T04:15:04.904Z,97874.05
2023-02-26T04:17:46.151Z,97871.86
2023-02-26T04:20:25.691Z,97865.88
2023-02-26T04:23:07.595Z,97867.61
2023-02-26T04:25:49.133Z,97863.97
2023-02-26T04:28:39.963Z,97860.20
2023-02-26T04:31:16.799Z,97859.20
2023-02-26T04:33:54.078Z,97862.60
2023-02-26T04:36:33.897Z,97860.22
2023-02-26T04:39:10.811Z,97863.99
2023-02-26T04:41:55.947Z,97869.98
2023-02-26T04:44:35.799Z,97870.83
2023-02-26T04:47:17.595Z,97867.42
2023-02-26T04:49:57.327Z,97863.83
2023-02-26T04:52:33.325Z,97865.55
2023-02-26T04:55:17.736Z,97867.77
2023-02-26T04:57:54.430Z,97870.02
2023-02-26T05:00:31.892Z,97874.80
2023-02-26T05:03:08.819Z,97874.14
2023-02-26T05:05:43.620Z,97872.10
2023-02-26T05:08:19.964Z,97878.09
2023-02-26T05:10:54.870Z,97879.98
2023-02-26T05:13:28.437Z,97880.16
2023-02-26T05:15:58.079Z,97879.33
2023-02-26T05:18:29.047Z,97878.33
2023-02-26T05:21:02.362Z,97876.63
2023-02-26T05:23:34.032Z,97877.84
2023-02-26T05:26:02.698Z,97879.21
2023-02-26T05:28:34.050Z,97878.88
2023-02-26T05:31:02.797Z,97875.64
2023-02-26T05:33:34.411Z,97881.10
2023-02-26T05:36:07.316Z,97878.73
2023-02-26T05:38:38.264Z,97884.52
2023-02-26T05:41:12.400Z,97878.73
2023-02-26T05:43:43.853Z,97878.91
2023-02-26T05:46:14.838Z,97881.13
2023-02-26T05:48:48.253Z,97884.19
2023-02-26T05:51:16.759Z,97888.95
2023-02-26T05:53:48.905Z,97893.20
2023-02-26T05:56:22.484Z,97891.15
2023-02-26T05:58:53.823Z,97891.29
2023-02-26T06:01:22.603Z,97895.88
2023-02-26T06:03:56.483Z,97902.03
2023-02-26T06:06:27.763Z,97902.88
2023-02-26T06:09:01.390Z,97901.31
2023-02-26T06:11:34.090Z,97904.02
2023-02-26T06:14:03.158Z,97902.66
2023-02-26T06:16:39.580Z,97898.58
2023-02-26T06:19:13.647Z,97903.48
2023-02-26T06:21:44.637Z,97909.11
2023-02-26T06:24:18.247Z,97906.38
2023-02-26T06:26:51.922Z,97904.00
2023-02-26T06:29:21.070Z,97909.61
2023-02-26T06:31:58.296Z,97912.48
2023-02-26T06:34:35.814Z,97911.98
2023-02-26T06:37:15.893Z,97916.41
2023-02-26T06:39:47.926Z,97926.48
2023-02-26T06:42:24.120Z,97929.56
2023-02-26T06:44:57.640Z,97925.48
2023-02-26T06:47:28.656Z,97933.69
2023-02-26T06:50:05.379Z,97937.25
2023-02-26T06:52:39.098Z,97930.94
2023-02-26T06:55:11.735Z,97940.83
2023-02-26T06:57:40.255Z,97940.31
2023-02-26T07:00:12.653Z,97939.80
2023-02-26T07:02:46.995Z,97940.84
2023-02-26T07:05:26.097Z,97938.93
2023-02-26T07:07:59.655Z,97938.08
2023-02-26T07:10:30.848Z,97936.20
2023-02-26T07:13:08.469Z,97941.34
2023-02-26T07:15:45.988Z,97935.70
2023-02-26T07:18:23.225Z,97930.09
2023-02-26T07:20:59.023Z,97922.77
2023-02-26T07:23:40.925Z,97918.36
2023-02-26T07:26:18.515Z,97921.61
2023-02-26T07:28:56.954Z,97931.48
2023-02-26T07:31:36.970Z,97934.39
2023-02-26T07:34:17.906Z,97928.23
2023-02-26T07:36:50.955Z,97931.60
2023-02-26T07:39:28.539Z,97931.40
2023-02-26T07:42:10.392Z,97933.23
2023-02-26T07:44:43.611Z,97931.02
2023-02-26T07:47:31.023Z,97937.98
2023-02-26T07:50:10.931Z,97949.85
2023-02-26T07:52:53.705Z,97949.02
2023-02-26T07:55:32.339Z,97950.08
2023-02-26T07:58:10.768Z,97960.79
2023-02-26T08:00:51.373Z,97962.64
2023-02-26T08:03:32.522Z,97965.84
2023-02-26T08:06:12.185Z,97966.84
2023-02-26T08:09:02.525Z,97972.34
2023-02-26T08:11:40.772Z,97979.00
2023-02-26T08:14:19.833Z,97975.94
2023-02-26T08:17:05.353Z,97974.26
2023-02-26T08:19:55.725Z,97977.30
2023-02-26T08:22:43.889Z,97983.94
2023-02-26T08:25:48.381Z,97976.60
2023-02-26T08:28:48.513Z,97966.05
2023-02-26T08:31:39.036Z,97975.80
2023-02-26T08:34:33.862Z,97981.79
2023-02-26T08:37:23.557Z,97973.61
2023-02-26T08:40:07.242Z,97974.46
2023-02-26T08:42:49.651Z,97985.70
2023-02-26T08:45:31.608Z,97984.17
2023-02-26T08:48:15.717Z,97999.21
2023-02-26T08:50:49.636Z,98007.89
2023-02-26T08:53:18.742Z,98005.33
2023-02-26T08:55:51.913Z,97986.70
2023-02-26T08:58:23.022Z,97971.35
2023-02-26T09:00:54.284Z,97994.73
2023-02-26T09:03:29.654Z,98039.95
2023-02-26T09:06:05.031Z,98038.23
2023-02-26T09:08:36.619Z,97998.97
2023-02-26T09:11:10.811Z,98008.38
2023-02-26T09:13:43.101Z,98040.08
2023-02-26T09:16:17.058Z,98032.00
2023-02-26T09:18:50.820Z,98017.59
2023-02-26T09:21:25.290Z,98010.70
2023-02-26T09:23:59.537Z,98017.70
2023-02-26T09:26:34.453Z,98017.81
2023-02-26T09:29:05.166Z,98014.55
2023-02-26T09:31:34.160Z,98011.48
2023-02-26T09:34:10.495Z,98020.99
2023-02-26T09:36:46.956Z,98018.18
2023-02-26T09:39:20.595Z,98026.32
2023-02-26T09:42:02.119Z,98022.64
2023-02-26T09:44:42.402Z,98020.95
2023-02-26T09:47:41.956Z,98034.98
2023-02-26T09:50:39.253Z,98048.63
2023-02-26T09:53:20.993Z,98047.43
2023-02-26T09:55:59.231Z,98049.52
2023-02-26T09:58:40.778Z,98038.05
2023-02-26T10:01:22.078Z,98038.23
2023-02-26T10:04:25.833Z,98048.83
2023-02-26T10:07:32.944Z,98049.68
2023-02-26T10:10:25.819Z,98056.19
2023-02-26T10:12:55.053Z,98061.98
2023-02-26T10:15:40.438Z,98056.83
2023-02-26T10:18:14.448Z,98063.34
2023-02-26T10:20:46.296Z,98065.37
2023-02-26T10:23:21.025Z,98052.90
2023-02-26T10:26:31.627Z,98069.48
2023-02-26T10:29:26.787Z,98058.77
2023-02-26T10:32:37.791Z,98062.03
2023-02-26T10:35:16.752Z,98083.84
2023-02-26T10:37:58.979Z,98068.08
2023-02-26T10:40:48.891Z,98066.64
2023-02-26T10:43:30.062Z,98085.13
2023-02-26T10:46:53.075Z,98081.05
2023-02-26T10:50:01.855Z,98067.97
2023-02-26T10:52:36.435Z,98079.17
2023-02-26T10:55:37.365Z,98083.72
2023-02-26T10:58:18.049Z,98074.56
2023-02-26T11:00:56.157Z,98076.92
2023-02-26T11:03:41.691Z,98083.04
2023-02-26T11:06:15.593Z,98067.21
2023-02-26T11:08:54.468Z,98063.39
2023-02-26T11:11:49.714Z,98065.86
2023-02-26T11:14:27.582Z,98061.85
2023-02-26T11:17:10.148Z,98054.13
2023-02-26T11:20:00.953Z,98063.33
2023-02-26T11:22:36.478Z,98067.83
2023-02-26T11:25:17.268Z,98073.65
2023-02-26T11:27:59.252Z,98073.16
2023-02-26T11:30:39.840Z,98081.70
2023-02-26T11:33:40.958Z,98091.83
2023-02-26T11:36:28.430Z,98096.77
2023-02-26T11:39:10.068Z,98104.84
2023-02-26T11:41:47.152Z,98107.50
2023-02-26T11:44:43.956Z,98108.80
2023-02-26T11:47:27.333Z,98109.40
2023-02-26T11:50:17.902Z,98117.64
2023-02-26T11:53:08.437Z,98115.84
2023-02-26T11:55:52.152Z,98110.83
2023-02-26T11:58:30.744Z,98103.38
2023-02-26T12:01:11.640Z,98103.58
2023-02-26T12:03:53.281Z,98114.70
2023-02-26T12:06:36.462Z,98109.63
2023-02-26T12:09:15.456Z,98123.27
2023-02-26T12:12:21.893Z,98122.50
2023-02-26T12:15:21.812Z,98120.22
2023-02-26T12:18:50.037Z,98118.64
2023-02-26T12:22:14.479Z,98128.16
2023-02-26T12:25:26.671Z,98138.08
2023-02-26T12:28:42.225Z,98150.64
2023-02-26T12:31:42.367Z,98145.69
2023-02-26T12:35:24.177Z,98138.32
2023-02-26T12:38:15.330Z,98142.69
2023-02-26T12:41:13.980Z,98149.08
2023-02-26T12:43:54.545Z,98154.16
2023-02-26T12:46:41.412Z,98153.39
2023-02-26T12:50:19.085Z,98150.79
2023-02-26T12:53:11.375Z,98148.85
2023-02-26T12:56:16.798Z,98154.52
2023-02-26T12:59:01.665Z,98163.29
2023-02-26T13:02:01.021Z,98168.90
2023-02-26T13:05:09.815Z,98169.42
2023-02-26T13:08:06.038Z,98169.58
2023-02-26T13:10:54.011Z,98173.56
2023-02-26T13:14:10.281Z,98179.15
2023-02-26T13:17:21.318Z,98174.98
2023-02-26T13:20:01.205Z,98178.55
2023-02-26T13:22:46.047Z,98182.20
2023-02-26T13:25:51.832Z,98189.38
2023-02-26T13:29:01.823Z,98196.25
2023-02-26T13:31:44.743Z,98193.29
2023-02-26T13:34:37.170Z,98196.53
2023-02-26T13:37:43.281Z,98199.34
2023-02-26T13:40:15.139Z,98204.79
2023-02-26T13:43:17.043Z,98211.94
2023-02-26T13:46:08.870Z,98214.30
2023-02-26T13:49:05.236Z,98223.42
2023-02-26T13:51:45.038Z,98225.30
2023-02-26T13:54:17.488Z,98228.23
2023-02-26T13:57:06.774Z,98235.50
2023-02-26T13:59:47.368Z,98235.70
2023-02-26T14:02:46.402Z,98233.77
2023-02-26T14:05:55.063Z,98235.79
2023-02-26T14:08:39.693Z,98238.23
2023-02-26T14:11:52.874Z,98237.72
2023-02-26T14:14:37.772Z,98228.62
2023-02-26T14:17:11.164Z,98232.44
2023-02-26T14:19:43.934Z,98239.80
2023-02-26T14:22:38.171Z,98247.25
2023-02-26T14:25:12.593Z,98254.96
2023-02-26T14:27:46.085Z,98261.09
2023-02-26T14:30:31.147Z,98268.02
2023-02-26T14:33:06.108Z,98280.23
2023-02-26T14:35:42.394Z,98287.91
2023-02-26T14:38:42.750Z,98291.77
2023-02-26T14:41:33.943Z,98295.64
2023-02-26T14:44:21.120Z,98293.38
2023-02-26T14:46:51.506Z,98294.11
2023-02-26T14:49:32.393Z,98297.06
2023-02-26T14:52:16.680Z,98302.73
2023-02-26T14:55:05.487Z,98296.88
2023-02-26T14:58:11.390Z,98292.91
2023-02-26T15:01:15.973Z,98311.91
2023-02-26T15:04:08.133Z,98313.67
2023-02-26T15:07:20.272Z,98315.84
2023-02-26T15:10:14.802Z,98320.27
2023-02-26T15:13:13.473Z,98317.55
2023-02-26T15:16:21.129Z,98314.73
2023-02-26T15:19:04.533Z,98306.96
2023-02-26T15:22:33.310Z,98306.59
2023-02-26T15:25:14.542Z,98321.05
2023-02-26T15:27:48.825Z,98325.02
2023-02-26T15:30:20.144Z,98327.27
2023-02-26T15:32:49.298Z,98333.45
2023-02-26T15:35:22.787Z,98332.78
2023-02-26T15:38:01.244Z,98326.29
2023-02-26T15:40:41.962Z,98329.23
2023-02-26T15:43:24.508Z,98336.67
2023-02-26T15:46:03.644Z,98337.75
2023-02-26T15:48:42.255Z,98341.38
2023-02-26T15:51:17.261Z,98331.98
2023-02-26T15:53:55.386Z,98327.10
2023-02-26T15:56:29.082Z,98336.30
2023-02-26T15:59:25.093Z,98344.55
2023-02-26T16:02:02.896Z,98351.39
2023-02-26T16:04:47.155Z,98345.89
2023-02-26T16:07:21.110Z,98349.33
2023-02-26T16:10:07.023Z,98349.14
2023-02-26T16:12:49.517Z,98355.33
2023-02-26T16:15:37.994Z,98370.05
2023-02-26T16:18:16.698Z,98366.29
2023-02-26T16:20:56.710Z,98368.02
2023-02-26T16:23:47.387Z,98364.96
2023-02-26T16:27:00.111Z,98368.73
2023-02-26T16:29:46.703Z,98381.79
2023-02-26T16:32:30.164Z,98398.94
2023-02-26T16:35:19.258Z,98401.52
2023-02-26T16:38:03.262Z,98412.85
2023-02-26T16:40:44.623Z,98429.00
2023-02-26T16:43:56.318Z,98427.13
2023-02-26T16:46:52.923Z,98419.44
2023-02-26T16:49:41.456Z,98421.34
2023-02-26T16:52:27.193Z,98417.27
2023-02-26T16:55:05.636Z,98422.92
2023-02-26T16:57:45.698Z,98431.35
2023-02-26T17:00:37.445Z,98446.64
2023-02-26T17:03:29.019Z,98457.46
2023-02-26T17:06:11.742Z,98467.96
2023-02-26T17:08:46.666Z,98484.09
2023-02-26T17:11:29.925Z,98499.71
2023-02-26T17:14:09.968Z,98489.44
2023-02-26T17:16:38.538Z,98482.59
2023-02-26T17:19:09.789Z,98480.02
2023-02-26T17:21:49.045Z,98479.02
2023-02-26T17:24:31.526Z,98482.96
2023-02-26T17:27:02.563Z,98510.58
2023-02-26T17:29:45.646Z,98514.02
2023-02-26T17:32:20.455Z,98489.88
2023-02-26T17:34:56.173Z,98475.84
2023-02-26T17:37:33.912Z,98475.48
2023-02-26T17:40:05.728Z,98492.44
2023-02-26T17:42:34.595Z,98498.59
2023-02-26T17:45:09.534Z,98485.90
2023-02-26T17:47:38.642Z,98480.08
2023-02-26T17:50:30.152Z,98481.78
2023-02-26T17:52:58.666Z,98482.42
2023-02-26T17:55:35.847Z,98490.63
2023-02-26T17:58:18.599Z,98498.85
2023-02-26T18:00:50.225Z,98490.27
2023-02-26T18:03:24.335Z,98474.12
2023-02-26T18:05:57.875Z,98454.60
2023-02-26T18:08:31.494Z,98445.06
2023-02-26T18:11:00.757Z,98444.41
2023-02-26T18:13:32.438Z,98457.10
2023-02-26T18:16:05.403Z,98457.77
2023-02-26T18:18:37.598Z,98449.52
2023-02-26T18:21:06.613Z,98443.35
2023-02-26T18:23:35.787Z,98445.91
2023-02-26T18:26:07.825Z,98443.88
2023-02-26T18:28:38.878Z,98451.59
2023-02-26T18:31:09.987Z,98456.60
2023-02-26T18:33:44.009Z,98457.98
2023-02-26T18:36:34.318Z,98446.72
2023-02-26T18:39:08.562Z,98441.60
2023-02-26T18:41:40.257Z,98440.63
2023-02-26T18:44:08.768Z,98445.27
2023-02-26T18:46:40.359Z,98452.46
2023-02-26T18:49:18.265Z,98458.80
2023-02-26T18:51:59.154Z,98460.02
2023-02-26T18:54:30.042Z,98477.48
2023-02-26T18:57:01.530Z,98491.86
2023-02-26T18:59:30.417Z,98494.44
2023-02-26T19:02:04.432Z,98493.95
2023-02-26T19:04:38.937Z,98489.99
2023-02-26T19:07:10.347Z,98485.21
2023-02-26T19:09:50.678Z,98477.86
2023-02-26T19:12:26.456Z,98478.38
2023-02-26T19:15:06.107Z,98481.44
2023-02-26T19:17:43.118Z,98483.13
2023-02-26T19:20:14.972Z,98486.20
2023-02-26T19:22:48.690Z,98484.80
2023-02-26T19:25:24.464Z,98495.90
2023-02-26T19:27:54.219Z,98503.59
2023-02-26T19:30:25.293Z,98505.61
2023-02-26T19:32:59.533Z,98496.17
2023-02-26T19:35:30.880Z,98491.41
2023-02-26T19:38:09.305Z,98495.33
2023-02-26T19:40:46.042Z,98499.27
2023-02-26T19:43:17.070Z,98496.33
2023-02-26T19:45:53.827Z,98495.13
2023-02-26T19:48:31.437Z,98494.98
2023-02-26T19:51:14.447Z,98494.66
2023-02-26T19:53:49.904Z,98491.77
2023-02-26T19:56:33.840Z,98493.01
2023-02-26T19:59:09.208Z,98495.77
2023-02-26T20:01:54.251Z,98499.90
2023-02-26T20:04:36.654Z,98503.69
2023-02-26T20:07:18.153Z,98503.52
2023-02-26T20:09:52.801Z,98504.25
2023-02-26T20:12:30.528Z,98506.34
2023-02-26T20:15:13.392Z,98510.98
2023-02-26T20:17:54.376Z,98517.02
2023-02-26T20:20:32.813Z,98523.18
2023-02-26T20:23:13.657Z,98530.73
2023-02-26T20:25:55.001Z,98528.33
2023-02-26T20:28:44.607Z,98518.23
2023-02-26T20:31:26.207Z,98509.86
2023-02-26T20:34:07.407Z,98507.66
2023-02-26T20:36:48.299Z,98501.67
2023-02-26T20:39:37.547Z,98501.02
2023-02-26T20:42:16.639Z,98509.90
2023-02-26T20:44:56.502Z,98522.55
2023-02-26T20:47:29.339Z,98524.95
2023-02-26T20:49:57.508Z,98532.13
2023-02-26T20:52:26.153Z,98534.86
2023-02-26T20:54:57.049Z,98535.20
2023-02-26T20:57:25.413Z,98535.02
2023-02-26T20:59:54.293Z,98529.89
2023-02-26T21:02:25.612Z,98527.67
2023-02-26T21:04:54.886Z,98529.02
2023-02-26T21:07:24.654Z,98531.23
2023-02-26T21:09:54.043Z,98528.69
2023-02-26T21:12:30.985Z,98525.78
2023-02-26T21:15:06.230Z,98525.42
2023-02-26T21:17:34.815Z,98514.98
2023-02-26T21:20:06.188Z,98494.45
2023-02-26T21:22:37.746Z,98487.25
2023-02-26T21:25:09.602Z,98494.95
2023-02-26T21:27:41.255Z,98502.33
2023-02-26T21:30:12.151Z,98513.42
2023-02-26T21:32:43.850Z,98516.52
2023-02-26T21:35:16.152Z,98519.27
2023-02-26T21:37:50.703Z,98517.38
2023-02-26T21:40:25.100Z,98525.06
2023-02-26T21:42:56.229Z,98526.42
2023-02-26T21:45:27.332Z,98521.29
2023-02-26T21:47:56.240Z,98524.89
2023-02-26T21:50:28.107Z,98530.37
2023-02-26T21:53:02.582Z,98533.80
2023-02-26T21:55:34.096Z,98536.90
2023-02-26T21:58:03.100Z,98544.09
2023-02-26T22:00:31.876Z,98540.67
2023-02-26T22:03:00.557Z,98539.30
2023-02-26T22:05:32.211Z,98531.61
2023-02-26T22:08:00.717Z,98528.87
2023-02-26T22:10:34.185Z,98522.39
2023-02-26T22:13:05.706Z,98520.54
2023-02-26T22:15:34.720Z,98509.59
2023-02-26T22:18:04.167Z,98506.35
2023-02-26T22:20:33.336Z,98511.67
2023-02-26T22:23:02.660Z,98519.70
2023-02-26T22:25:33.849Z,98518.18
2023-02-26T22:28:05.952Z,98510.30
2023-02-26T22:30:36.897Z,98509.96
2023-02-26T22:33:05.482Z,98504.33
2023-02-26T22:35:34.687Z,98503.81
2023-02-26T22:38:06.657Z,98505.17
2023-02-26T22:40:37.581Z,98512.36
2023-02-26T22:43:09.152Z,98516.80
2023-02-26T22:45:37.752Z,98514.91
2023-02-26T22:48:08.612Z,98523.81
2023-02-26T22:50:37.191Z,98523.96
2023-02-26T22:53:10.681Z,98525.33
2023-02-26T22:55:47.476Z,98526.52
2023-02-26T22:58:18.402Z,98530.80
2023-02-26T23:00:50.110Z,98528.59
2023-02-26T23:03:21.638Z,98533.88
2023-02-26T23:05:50.434Z,98536.61
2023-02-26T23:08:21.352Z,98532.33
2023-02-26T23:10:59.027Z,98528.23
2023-02-26T23:13:34.117Z,98523.77
2023-02-26T23:16:08.631Z,98517.64
2023-02-26T23:18:38.092Z,98510.45
2023-02-26T23:21:09.193Z,98515.58
2023-02-26T23:23:40.824Z,98518.48
2023-02-26T23:26:15.770Z,98514.72
2023-02-26T23:28:50.253Z,98509.08
2023-02-26T23:31:25.293Z,98510.42
2023-02-26T23:33:56.537Z,98509.24
2023-02-26T23:36:28.040Z,98510.10
2023-02-26T23:39:00.918Z,98516.59
2023-02-26T23:41:32.794Z,98519.67
2023-02-26T23:44:06.362Z,98522.58
2023-02-26T23:46:42.898Z,98521.20
2023-02-26T23:49:16.101Z,98527.04
2023-02-26T23:51:46.606Z,98530.14
2023-02-26T23:54:15.750Z,98533.58
2023-02-26T23:56:47.736Z,98529.98
2023-02-26T23:59:26.294Z,98524.50
